Weather at Aneityum Airport

Public forecast

Using degrees Celsius for public forecast. Weather courtesy of forecast.io.

Current aviation weather report (METAR) for Aneityum Airport

Report is more than 6 hours old.

Retrieved 2021/01/23 00:00 UTC (3 days ago):

NVVA 230000Z 14012KT 9999 -DZ FEW008 SCT020 FEW025CB OVC100 26/24 Q1008

Aviation forecast (TAF) for Aneityum Airport

Retrieved 2021/01/25 18:02 UTC (2 hours ago):

TAF NVVA 251600Z 2518/2618 VRB04KT 9999 SCT020 INTER 2518/2524 9000 SHRA BKN018